Time;durP1;ratioP1;P1;durP2;ratioP2;P2;SDS_P1;SDS_P2;PMS_P1;PMS_P2;Temp;Humidity;BMP_temperature;BMP_pressure;BME280_temperature;BME280_humidity;BME280_pressure;Samples;Min_cycle;Max_cycle;Signal;HPM_P1;HPM_P2
2022/06/13 03:51:03;;;;;;;17.50;16.30;;;17.00;99.90;;;;;;4968535;28;20622;-75
2022/06/13 03:53:37;;;;;;;18.17;16.80;;;17.00;99.90;;;;;;4972870;28;21127;-76
2022/06/13 03:56:11;;;;;;;17.13;15.93;;;17.00;99.90;;;;;;4972410;28;20518;-73
2022/06/13 03:58:41;;;;;;;17.47;16.37;;;17.00;99.90;;;;;;4973218;28;20466;-74
2022/06/13 04:01:12;;;;;;;16.67;15.60;;;17.10;99.90;;;;;;4972496;28;20472;-74
2022/06/13 04:03:39;;;;;;;16.47;15.37;;;17.10;99.90;;;;;;4973103;28;20464;-73
2022/06/13 04:06:33;;;;;;;17.03;15.83;;;17.20;99.90;;;;;;4973119;28;20452;-75
2022/06/13 04:09:02;;;;;;;17.00;16.00;;;17.30;99.90;;;;;;4972959;28;20452;-73
2022/06/13 04:11:37;;;;;;;16.10;15.20;;;17.20;99.90;;;;;;4972851;28;20539;-74
2022/06/13 04:14:14;;;;;;;18.20;17.00;;;17.20;99.90;;;;;;4973023;28;20487;-74
2022/06/13 04:16:52;;;;;;;17.07;15.87;;;17.30;99.90;;;;;;4972632;28;21119;-75
2022/06/13 04:19:31;;;;;;;16.50;14.90;;;17.10;99.90;;;;;;4972905;28;20872;-75
2022/06/13 04:22:08;;;;;;;16.53;15.23;;;17.00;99.90;;;;;;4972806;28;20455;-74
2022/06/13 04:24:48;;;;;;;15.97;15.13;;;17.40;99.90;;;;;;4973046;28;20487;-74
2022/06/13 04:27:22;;;;;;;15.70;14.60;;;18.00;99.90;;;;;;4972776;28;20953;-74
2022/06/13 04:29:58;;;;;;;16.27;15.10;;;18.50;99.90;;;;;;4972951;28;20492;-74
2022/06/13 04:32:34;;;;;;;15.23;14.23;;;19.10;99.90;;;;;;4972403;28;21274;-76
2022/06/13 04:35:01;;;;;;;15.80;14.60;;;19.50;99.90;;;;;;4972778;28;20462;-76
2022/06/13 04:37:30;;;;;;;15.60;14.70;;;19.90;99.90;;;;;;4972098;28;20510;-76
2022/06/13 04:40:01;;;;;;;15.40;14.50;;;20.00;99.90;;;;;;4972389;28;20840;-76
2022/06/13 04:42:32;;;;;;;14.50;13.50;;;20.00;99.90;;;;;;4972243;28;20466;-76
2022/06/13 04:45:04;;;;;;;15.47;14.10;;;20.20;99.90;;;;;;4972521;28;20474;-77
2022/06/13 04:47:32;;;;;;;15.17;14.37;;;19.90;99.90;;;;;;4972822;28;20531;-77
2022/06/13 04:50:00;;;;;;;15.63;14.63;;;19.50;99.90;;;;;;4972114;28;20989;-78
2022/06/13 04:52:32;;;;;;;14.50;13.90;;;19.00;99.90;;;;;;4972714;28;20456;-78
2022/06/13 04:55:04;;;;;;;14.90;13.90;;;18.60;99.90;;;;;;4972842;28;20819;-79
2022/06/13 04:57:31;;;;;;;16.60;15.60;;;18.20;99.90;;;;;;4972463;28;20456;-79
2022/06/13 04:59:58;;;;;;;14.60;13.70;;;18.00;99.90;;;;;;4972623;28;20452;-79
2022/06/13 05:02:34;;;;;;;15.47;14.00;;;17.80;99.90;;;;;;4971813;28;20480;-79
2022/06/13 05:05:01;;;;;;;14.63;13.57;;;17.70;99.90;;;;;;4972652;28;20456;-79
2022/06/13 05:07:30;;;;;;;17.47;14.80;;;18.30;99.90;;;;;;4972851;28;20815;-81
2022/06/13 05:10:00;;;;;;;14.10;13.30;;;18.80;99.90;;;;;;4972605;28;20499;-81
2022/06/13 05:12:31;;;;;;;15.20;14.00;;;19.20;99.90;;;;;;4972802;28;20470;-81
2022/06/13 05:15:02;;;;;;;24.33;15.80;;;19.60;99.90;;;;;;4972798;28;20829;-82
2022/06/13 05:17:52;;;;;;;15.03;13.97;;;20.10;99.90;;;;;;4972670;28;20523;-82
2022/06/13 05:20:25;;;;;;;15.20;14.07;;;20.30;99.90;;;;;;4973260;28;20465;-83
2022/06/13 05:23:13;;;;;;;14.90;13.80;;;20.50;99.90;;;;;;4972653;28;20463;-83
2022/06/13 05:25:44;;;;;;;14.73;13.60;;;20.80;99.90;;;;;;4973262;28;20448;-85
2022/06/13 05:28:14;;;;;;;15.17;14.10;;;20.90;99.90;;;;;;4977152;28;20459;-85
2022/06/13 05:30:43;;;;;;;14.70;13.70;;;20.90;99.90;;;;;;4982074;28;20491;-85
2022/06/13 05:33:12;;;;;;;14.70;13.90;;;20.90;99.90;;;;;;4984194;28;20439;-86
2022/06/13 05:35:43;;;;;;;14.97;13.83;;;21.30;99.90;;;;;;4972655;28;20818;-76
2022/06/13 05:38:16;;;;;;;14.67;13.40;;;21.60;99.90;;;;;;4972403;28;20543;-78
2022/06/13 05:40:43;;;;;;;15.83;14.73;;;22.00;99.90;;;;;;4972207;28;20454;-79
2022/06/13 05:43:10;;;;;;;15.63;14.60;;;22.00;99.90;;;;;;4972252;28;20451;-81
2022/06/13 05:45:39;;;;;;;15.17;14.17;;;22.00;99.90;;;;;;4972221;28;20460;-83
2022/06/13 05:48:11;;;;;;;15.43;14.20;;;22.60;99.90;;;;;;4971792;28;20558;-82
2022/06/13 05:50:38;;;;;;;14.53;13.43;;;22.90;99.00;;;;;;4975777;28;20586;-82
2022/06/13 05:53:04;;;;;;;14.40;13.60;;;22.90;98.50;;;;;;4976248;28;20455;-84
2022/06/13 05:55:33;;;;;;;15.20;14.43;;;23.30;98.10;;;;;;4976087;28;20455;-83
2022/06/13 05:58:00;;;;;;;14.90;14.10;;;23.60;97.20;;;;;;4976237;28;20955;-84
2022/06/13 06:00:31;;;;;;;15.60;14.50;;;23.80;95.70;;;;;;4975868;28;20467;-78
2022/06/13 06:02:58;;;;;;;14.43;13.73;;;23.90;96.10;;;;;;4974762;28;20476;-78
2022/06/13 06:05:25;;;;;;;15.40;14.00;;;23.50;95.10;;;;;;4975221;28;20455;-78
2022/06/13 06:07:51;;;;;;;16.80;15.40;;;23.70;95.40;;;;;;4975583;28;20463;-78
2022/06/13 06:10:21;;;;;;;14.97;13.77;;;24.10;94.90;;;;;;4975561;28;20494;-77
2022/06/13 06:12:48;;;;;;;15.40;14.07;;;23.90;94.70;;;;;;4975721;28;20463;-78
2022/06/13 06:15:15;;;;;;;15.93;14.83;;;24.20;93.80;;;;;;4975479;28;20459;-79
2022/06/13 06:17:42;;;;;;;14.70;13.90;;;24.30;93.50;;;;;;4975467;28;20937;-79
2022/06/13 06:20:11;;;;;;;15.67;14.37;;;24.50;92.40;;;;;;4975765;28;20522;-80
2022/06/13 06:22:42;;;;;;;14.87;13.70;;;23.80;93.00;;;;;;4975046;28;20455;-78
2022/06/13 06:25:09;;;;;;;15.13;14.13;;;24.00;92.60;;;;;;4972863;28;20455;-82
2022/06/13 06:27:36;;;;;;;14.20;13.40;;;23.80;92.50;;;;;;4974721;28;20880;-83
2022/06/13 06:30:06;;;;;;;14.77;13.97;;;23.60;92.40;;;;;;4975484;28;20980;-82
2022/06/13 06:32:32;;;;;;;15.17;14.17;;;23.90;93.20;;;;;;4975393;28;20556;-80
2022/06/13 06:34:59;;;;;;;15.57;14.73;;;24.10;92.10;;;;;;4968284;28;20476;-81
2022/06/13 06:37:26;;;;;;;15.87;14.60;;;24.80;91.70;;;;;;4959124;28;20444;-81
2022/06/13 06:39:52;;;;;;;15.03;14.17;;;25.60;89.10;;;;;;4975045;28;20858;-81
2022/06/13 06:42:19;;;;;;;15.13;14.03;;;25.60;87.10;;;;;;4967364;28;20838;-81
2022/06/13 06:44:46;;;;;;;14.23;13.43;;;25.30;85.80;;;;;;4955943;29;20467;-80
2022/06/13 06:47:14;;;;;;;15.03;14.07;;;25.20;88.20;;;;;;4955535;29;20481;-80
2022/06/13 06:49:41;;;;;;;14.30;13.50;;;25.00;87.10;;;;;;4955490;29;20488;-79
2022/06/13 06:52:09;;;;;;;14.93;13.73;;;25.00;86.30;;;;;;4975069;28;20573;-79
2022/06/13 07:00:05;;;;;;;15.53;14.73;;;25.80;83.60;;;;;;4974201;28;20435;-79
2022/06/13 07:02:33;;;;;;;15.53;14.23;;;25.50;81.30;;;;;;4975226;28;20459;-79
2022/06/13 07:05:02;;;;;;;14.10;13.00;;;25.30;81.90;;;;;;4974779;28;20514;-79
2022/06/13 07:07:29;;;;;;;15.43;14.43;;;24.90;84.20;;;;;;4969726;28;20460;-79
2022/06/13 07:09:56;;;;;;;14.57;13.37;;;25.00;83.90;;;;;;4955074;29;20467;-81
2022/06/13 07:12:22;;;;;;;14.40;13.60;;;25.20;85.30;;;;;;4952930;29;20499;-80
2022/06/13 07:14:49;;;;;;;15.80;14.77;;;25.80;83.20;;;;;;4955593;29;20449;-80
2022/06/13 07:17:16;;;;;;;15.07;13.87;;;26.40;80.60;;;;;;4955003;29;20472;-78
2022/06/13 07:19:45;;;;;;;15.93;14.87;;;26.40;79.40;;;;;;4955077;29;20464;-78
2022/06/13 07:22:17;;;;;;;14.90;13.87;;;26.20;82.30;;;;;;4955064;29;20544;-78
2022/06/13 07:24:43;;;;;;;15.10;14.10;;;26.50;78.80;;;;;;4954727;29;20447;-79
2022/06/13 07:27:10;;;;;;;15.53;14.30;;;26.70;79.30;;;;;;4954633;29;20453;-78
2022/06/13 07:29:37;;;;;;;14.20;13.50;;;26.90;77.30;;;;;;4954384;29;20467;-79
2022/06/13 07:32:07;;;;;;;15.27;14.30;;;26.70;79.60;;;;;;4955057;29;20540;-79
2022/06/13 07:34:36;;;;;;;13.50;12.80;;;26.50;79.20;;;;;;4963680;28;20531;-79
2022/06/13 07:37:06;;;;;;;15.57;14.50;;;26.30;79.40;;;;;;4974013;28;20507;-79
2022/06/13 07:39:33;;;;;;;14.30;13.53;;;26.50;80.00;;;;;;4974213;28;20459;-80
2022/06/13 07:42:00;;;;;;;14.50;13.90;;;27.20;77.60;;;;;;4973471;28;20456;-80
2022/06/13 07:44:29;;;;;;;15.60;14.60;;;27.40;75.80;;;;;;4971691;28;20460;-80
2022/06/13 07:46:56;;;;;;;16.77;15.57;;;27.30;76.50;;;;;;4973048;28;20828;-81
2022/06/13 07:49:23;;;;;;;15.37;14.47;;;27.80;75.00;;;;;;4972695;28;20564;-79
2022/06/13 07:51:50;;;;;;;15.13;14.03;;;27.80;72.90;;;;;;4973108;28;20491;-80
2022/06/13 07:54:18;;;;;;;14.60;13.80;;;27.70;72.90;;;;;;4972965;28;20474;-78
2022/06/13 07:56:45;;;;;;;15.03;13.90;;;27.50;73.10;;;;;;4973143;28;20456;-80
2022/06/13 07:59:16;;;;;;;16.07;15.07;;;27.50;74.70;;;;;;4972710;28;20462;-80
2022/06/13 08:01:43;;;;;;;14.90;13.87;;;27.70;72.10;;;;;;4973537;28;20527;-82
2022/06/13 08:04:10;;;;;;;14.93;13.93;;;27.60;71.80;;;;;;4973345;28;20536;-84
2022/06/13 08:06:38;;;;;;;15.60;14.70;;;27.40;71.90;;;;;;4973388;28;20455;-82
2022/06/13 08:09:05;;;;;;;16.37;15.17;;;26.80;75.30;;;;;;4971483;28;20816;-81
2022/06/13 08:11:37;;;;;;;15.33;14.30;;;27.40;74.30;;;;;;4972310;28;20487;-81
2022/06/13 08:14:06;;;;;;;15.83;14.73;;;27.30;72.90;;;;;;4973265;28;20462;-80
2022/06/13 08:16:34;;;;;;;16.70;15.30;;;28.00;72.10;;;;;;4973032;28;20562;-81
2022/06/13 08:19:01;;;;;;;16.23;15.13;;;28.60;71.70;;;;;;4972570;28;20458;-81
2022/06/13 08:21:28;;;;;;;16.10;15.00;;;28.90;68.70;;;;;;4972691;28;20554;-81
2022/06/13 08:23:54;;;;;;;14.30;13.40;;;28.90;68.40;;;;;;4972726;28;20459;-82
2022/06/13 08:26:21;;;;;;;16.40;15.17;;;29.00;68.20;;;;;;4972582;28;20455;-79
2022/06/13 08:28:49;;;;;;;15.43;14.53;;;29.40;67.00;;;;;;4972767;28;20464;-82
2022/06/13 08:31:19;;;;;;;15.57;14.60;;;30.10;66.60;;;;;;4972379;28;20487;-82
2022/06/13 08:33:47;;;;;;;16.77;15.77;;;30.10;63.20;;;;;;4972485;28;20805;-80
2022/06/13 08:36:13;;;;;;;16.50;15.57;;;30.60;62.70;;;;;;4972307;28;20468;-79
2022/06/13 08:38:41;;;;;;;14.63;13.93;;;30.50;61.90;;;;;;4972223;28;20455;-79
2022/06/13 08:41:21;;;;;;;14.10;13.20;;;30.30;61.30;;;;;;4972247;28;20452;-80
2022/06/13 08:44:19;;;;;;;15.27;14.07;;;29.70;62.30;;;;;;4972689;28;20470;-79
2022/06/13 08:46:58;;;;;;;15.23;14.33;;;29.60;62.40;;;;;;4972451;28;20456;-80
2022/06/13 08:49:35;;;;;;;14.30;13.40;;;29.90;64.00;;;;;;4971953;28;20479;-80
2022/06/13 08:52:13;;;;;;;15.70;14.90;;;30.50;60.20;;;;;;4972286;28;20524;-81
2022/06/13 08:54:43;;;;;;;15.63;14.50;;;31.00;59.00;;;;;;4972265;28;20475;-80
2022/06/13 08:57:12;;;;;;;15.80;14.93;;;31.10;58.00;;;;;;4972086;28;20466;-80
2022/06/13 08:59:44;;;;;;;16.23;14.70;;;30.70;57.70;;;;;;4971548;28;20956;-81
2022/06/13 09:02:17;;;;;;;16.23;15.17;;;30.20;59.00;;;;;;4971797;28;20458;-82
2022/06/13 09:04:52;;;;;;;16.47;15.27;;;29.90;59.40;;;;;;4971521;28;20456;-83
2022/06/13 09:07:25;;;;;;;16.77;15.33;;;29.80;60.00;;;;;;4972392;28;20455;-83
2022/06/13 09:09:57;;;;;;;14.20;13.47;;;28.70;60.00;;;;;;4972985;28;20459;-82
2022/06/13 09:12:34;;;;;;;17.23;16.03;;;28.40;61.60;;;;;;4972193;28;20881;-82
2022/06/13 09:15:07;;;;;;;15.47;14.53;;;28.40;63.20;;;;;;4979890;28;20467;-81
2022/06/13 09:17:41;;;;;;;16.07;15.07;;;29.10;60.60;;;;;;4972006;28;20988;-82
2022/06/13 09:20:15;;;;;;;16.50;15.20;;;28.80;60.00;;;;;;4971909;28;20462;-82
2022/06/13 09:22:58;;;;;;;15.03;14.13;;;28.40;61.70;;;;;;4971764;28;20828;-83
2022/06/13 09:25:36;;;;;;;14.87;14.27;;;29.00;61.50;;;;;;4971523;28;20459;-82
2022/06/13 09:28:09;;;;;;;15.93;14.93;;;29.60;59.30;;;;;;4971603;28;20447;-80
2022/06/13 09:30:43;;;;;;;15.57;14.60;;;29.30;58.70;;;;;;4971713;28;20455;-82
2022/06/13 09:33:16;;;;;;;15.30;14.40;;;28.60;59.50;;;;;;4970973;28;21003;-82
2022/06/13 09:35:47;;;;;;;14.93;14.10;;;28.60;59.40;;;;;;4971740;28;20459;-81
2022/06/13 09:38:20;;;;;;;15.83;14.93;;;29.90;57.60;;;;;;4971716;28;20467;-83
2022/06/13 09:40:59;;;;;;;15.27;14.23;;;30.00;54.60;;;;;;4972032;28;20459;-83
2022/06/13 09:43:39;;;;;;;14.87;13.87;;;29.70;56.60;;;;;;4971529;28;21012;-83
2022/06/13 09:46:14;;;;;;;15.60;14.57;;;29.00;58.00;;;;;;4971489;28;20552;-82
2022/06/13 09:48:53;;;;;;;15.50;14.27;;;28.80;57.90;;;;;;4971095;28;20467;-82
2022/06/13 09:51:30;;;;;;;14.97;14.07;;;29.60;55.10;;;;;;4971103;28;20487;-83
2022/06/13 09:54:09;;;;;;;15.20;14.20;;;29.90;54.20;;;;;;4971035;28;20451;-82
2022/06/13 09:56:44;;;;;;;14.90;14.00;;;30.10;55.00;;;;;;4973424;28;20447;-82
2022/06/13 09:59:22;;;;;;;15.23;14.23;;;30.30;52.90;;;;;;4973169;28;20447;-83
2022/06/13 10:01:59;;;;;;;14.43;13.60;;;29.60;51.10;;;;;;4972067;28;20487;-83
2022/06/13 10:04:34;;;;;;;15.20;14.40;;;29.80;52.00;;;;;;4971920;28;20455;-84
2022/06/13 10:07:08;;;;;;;14.63;13.73;;;30.70;52.60;;;;;;4972176;28;20458;-83
2022/06/13 10:09:44;;;;;;;14.40;13.70;;;31.20;51.60;;;;;;4971976;28;20466;-81
2022/06/13 10:12:19;;;;;;;15.00;14.00;;;32.00;47.50;;;;;;4971603;28;20487;-82
2022/06/13 10:14:57;;;;;;;14.30;13.20;;;32.40;46.00;;;;;;4971586;28;20451;-82
2022/06/13 10:17:49;;;;;;;14.60;13.50;;;32.10;47.30;;;;;;4971566;28;20855;-79
2022/06/13 10:20:23;;;;;;;14.50;13.57;;;31.40;48.10;;;;;;4972128;28;20538;-82
2022/06/13 10:22:58;;;;;;;13.90;13.20;;;31.70;48.60;;;;;;4971624;28;20455;-83
2022/06/13 10:25:45;;;;;;;15.17;14.37;;;32.30;47.90;;;;;;4971947;28;20447;-83
2022/06/13 10:28:26;;;;;;;14.47;13.50;;;32.50;46.40;;;;;;4971583;28;20459;-73
2022/06/13 10:31:01;;;;;;;13.73;13.07;;;32.00;47.00;;;;;;4970685;28;20460;-73
2022/06/13 10:33:40;;;;;;;14.67;13.80;;;32.10;46.60;;;;;;4970814;28;20487;-73
2022/06/13 10:36:17;;;;;;;14.53;13.63;;;32.60;45.90;;;;;;4973811;28;20455;-72
2022/06/13 10:38:58;;;;;;;15.93;14.70;;;33.00;45.30;;;;;;4974377;28;20447;-72
2022/06/13 10:41:28;;;;;;;13.97;13.27;;;33.20;44.50;;;;;;4972324;28;20490;-73
2022/06/13 10:43:56;;;;;;;16.07;15.07;;;33.20;44.60;;;;;;4974073;28;20713;-73
2022/06/13 10:46:23;;;;;;;15.50;14.40;;;33.30;44.80;;;;;;4974174;28;20471;-72
2022/06/13 10:48:56;;;;;;;14.73;13.93;;;32.40;45.10;;;;;;4973901;28;20864;-73
2022/06/13 10:51:24;;;;;;;14.60;13.90;;;31.00;46.10;;;;;;4973738;28;20949;-73
2022/06/13 10:53:57;;;;;;;14.60;13.93;;;29.90;48.90;;;;;;4973991;28;20470;-73
2022/06/13 10:56:35;;;;;;;14.60;13.80;;;29.50;49.20;;;;;;4973944;28;20848;-72
2022/06/13 10:59:01;;;;;;;14.67;13.70;;;29.60;48.10;;;;;;4974087;28;20458;-73
2022/06/13 11:01:30;;;;;;;13.87;13.07;;;29.70;48.60;;;;;;4973794;28;20463;-72
2022/06/13 11:04:04;;;;;;;14.30;13.43;;;30.20;49.50;;;;;;4973899;28;20482;-72
2022/06/13 11:06:39;;;;;;;14.80;13.93;;;31.30;46.40;;;;;;4973969;28;20503;-72
2022/06/13 11:09:19;;;;;;;14.13;13.43;;;31.00;46.10;;;;;;4973797;28;20451;-72
2022/06/13 11:11:46;;;;;;;14.40;13.60;;;30.90;46.80;;;;;;4973650;28;20488;-72
2022/06/13 11:14:34;;;;;;;13.83;13.10;;;31.50;46.80;;;;;;4973569;28;20456;-72
2022/06/13 11:23:00;;;;;;;14.67;13.80;;;31.20;45.30;;;;;;4925032;28;20447;-72
2022/06/13 11:25:30;;;;;;;14.67;13.97;;;31.30;46.70;;;;;;4973146;28;20474;-72
2022/06/13 11:28:06;;;;;;;15.00;14.10;;;30.80;45.90;;;;;;4973373;28;20460;-72
2022/06/13 11:30:42;;;;;;;14.07;13.47;;;30.70;45.80;;;;;;4973591;28;20459;-72
2022/06/13 11:33:24;;;;;;;14.57;13.30;;;31.10;46.40;;;;;;4973240;28;20486;-71
2022/06/13 11:35:54;;;;;;;14.10;13.50;;;31.20;45.30;;;;;;4973531;28;20459;-71
2022/06/13 11:38:24;;;;;;;14.73;14.00;;;31.80;45.10;;;;;;4973425;28;20600;-71
2022/06/13 11:41:05;;;;;;;15.87;14.90;;;32.70;44.00;;;;;;4973320;28;20463;-72
2022/06/13 11:43:36;;;;;;;15.20;14.50;;;32.90;43.60;;;;;;4973350;28;20451;-72
2022/06/13 11:46:07;;;;;;;14.97;14.33;;;32.30;43.70;;;;;;4973072;28;20504;-71
2022/06/13 11:48:35;;;;;;;14.43;13.77;;;30.50;45.80;;;;;;4973320;28;20531;-71
2022/06/13 11:51:06;;;;;;;14.97;14.07;;;30.60;46.20;;;;;;4973124;28;20447;-71
2022/06/13 11:53:38;;;;;;;14.30;13.70;;;31.30;45.40;;;;;;4972992;28;20491;-71
2022/06/13 11:56:09;;;;;;;14.57;13.97;;;30.40;46.10;;;;;;4972901;28;20452;-71
2022/06/13 11:58:40;;;;;;;15.20;14.27;;;29.60;47.60;;;;;;4972996;28;20515;-71
2022/06/13 12:01:17;;;;;;;14.70;14.10;;;30.20;47.50;;;;;;4972731;28;20468;-73
2022/06/13 12:03:49;;;;;;;14.80;14.20;;;30.60;45.40;;;;;;4972504;28;20451;-72
2022/06/13 12:06:19;;;;;;;13.93;13.37;;;29.70;45.90;;;;;;4972851;28;20455;-72
2022/06/13 12:08:51;;;;;;;16.00;14.90;;;29.80;45.90;;;;;;4972712;28;20459;-73
2022/06/13 12:11:23;;;;;;;14.57;13.93;;;30.20;45.10;;;;;;4972884;28;20538;-72
2022/06/13 12:13:52;;;;;;;15.33;14.50;;;30.50;46.60;;;;;;4972526;28;20495;-72
2022/06/13 12:16:35;;;;;;;13.87;13.17;;;30.80;46.30;;;;;;4972896;28;20824;-72
2022/06/13 12:19:14;;;;;;;14.93;14.20;;;30.30;45.80;;;;;;4972612;28;20462;-72
2022/06/13 12:21:48;;;;;;;13.40;12.80;;;29.60;46.20;;;;;;4972384;28;20728;-72
2022/06/13 12:24:23;;;;;;;15.30;14.33;;;28.90;47.10;;;;;;4972543;28;20491;-71
2022/06/13 12:26:57;;;;;;;16.00;15.00;;;28.10;47.60;;;;;;4972436;28;20813;-72
2022/06/13 12:29:56;;;;;;;14.70;13.90;;;28.60;48.00;;;;;;4972269;28;20887;-72
2022/06/13 12:32:27;;;;;;;15.10;14.10;;;29.40;47.80;;;;;;4971994;28;20495;-74
2022/06/13 12:35:06;;;;;;;14.70;14.00;;;27.90;48.70;;;;;;4971943;28;20455;-73
2022/06/13 12:37:43;;;;;;;14.37;13.37;;;27.10;49.50;;;;;;4972391;28;20466;-74
2022/06/13 12:40:21;;;;;;;13.23;12.37;;;27.70;48.00;;;;;;4972091;28;20686;-74
2022/06/13 12:43:25;;;;;;;13.47;12.87;;;28.60;46.80;;;;;;4972181;28;20450;-73
2022/06/13 12:46:16;;;;;;;13.73;13.20;;;28.90;46.50;;;;;;4971762;28;20443;-72
2022/06/13 12:48:53;;;;;;;13.17;12.27;;;28.30;46.40;;;;;;4958390;28;20507;-72
2022/06/13 12:51:29;;;;;;;13.93;13.10;;;27.40;48.40;;;;;;4971961;28;20906;-71
2022/06/13 12:54:27;;;;;;;13.20;12.40;;;27.50;48.50;;;;;;4971652;28;20533;-70
2022/06/13 12:57:05;;;;;;;14.50;13.70;;;27.50;47.70;;;;;;4971455;28;20454;-70
2022/06/13 12:59:49;;;;;;;13.67;12.93;;;28.60;47.60;;;;;;4969969;28;20461;-70
2022/06/13 13:02:25;;;;;;;13.23;12.73;;;29.00;45.70;;;;;;4971621;28;20459;-70
2022/06/13 13:05:03;;;;;;;13.00;12.40;;;28.30;45.00;;;;;;4971408;28;20506;-70
2022/06/13 13:07:37;;;;;;;13.73;13.17;;;27.30;46.40;;;;;;4971656;28;20455;-70
2022/06/13 13:10:25;;;;;;;14.07;13.37;;;27.30;46.70;;;;;;4971539;28;20466;-70
2022/06/13 13:13:08;;;;;;;13.70;12.90;;;27.50;46.20;;;;;;4971251;28;21000;-70
2022/06/13 13:15:43;;;;;;;13.90;13.23;;;28.00;46.30;;;;;;4971446;28;20452;-70
2022/06/13 13:18:18;;;;;;;14.40;13.40;;;28.60;46.30;;;;;;4971459;28;20446;-70
2022/06/13 13:20:49;;;;;;;14.83;14.03;;;29.30;45.20;;;;;;4971166;28;20485;-70
2022/06/13 13:23:21;;;;;;;13.03;12.43;;;29.20;44.70;;;;;;4971238;28;20436;-70
2022/06/13 13:25:57;;;;;;;13.90;13.20;;;28.20;46.20;;;;;;4971386;28;20448;-70
2022/06/13 13:28:33;;;;;;;14.10;13.40;;;28.00;47.20;;;;;;4971059;28;20455;-70
2022/06/13 13:31:07;;;;;;;13.23;12.53;;;27.80;47.70;;;;;;4971225;28;20459;-70
2022/06/13 13:33:51;;;;;;;14.40;13.70;;;27.40;48.00;;;;;;4970926;28;20495;-70
2022/06/13 13:36:24;;;;;;;13.60;13.00;;;27.60;48.60;;;;;;4971164;28;20463;-70
2022/06/13 13:38:55;;;;;;;14.20;13.20;;;28.30;45.30;;;;;;4971078;28;20499;-70
2022/06/13 13:41:30;;;;;;;14.50;13.70;;;29.00;45.80;;;;;;4971030;28;20448;-70
2022/06/13 13:44:01;;;;;;;14.57;13.10;;;28.80;45.00;;;;;;4970989;28;20514;-70
2022/06/13 13:46:33;;;;;;;13.67;12.83;;;28.30;46.60;;;;;;4970772;28;20945;-69
2022/06/13 13:49:04;;;;;;;14.60;13.80;;;27.90;47.20;;;;;;4970755;28;21341;-69
2022/06/13 13:51:36;;;;;;;12.60;11.87;;;27.80;46.40;;;;;;4970978;28;20877;-69
2022/06/13 13:54:10;;;;;;;13.23;12.53;;;26.90;47.90;;;;;;4970969;28;20491;-69
2022/06/13 13:56:44;;;;;;;13.10;12.57;;;26.30;48.90;;;;;;4970831;28;20509;-69
2022/06/13 13:59:14;;;;;;;12.73;12.03;;;26.00;49.90;;;;;;4970646;28;20543;-69
2022/06/13 14:01:56;;;;;;;12.60;12.10;;;25.70;51.30;;;;;;4970579;28;20452;-70
2022/06/13 14:04:33;;;;;;;12.67;12.03;;;25.60;50.70;;;;;;4970523;28;20484;-69
2022/06/13 14:07:15;;;;;;;13.60;12.90;;;25.80;50.50;;;;;;4970845;28;20447;-70
2022/06/13 14:09:42;;;;;;;12.80;12.20;;;25.90;49.90;;;;;;4971430;28;20455;-70
2022/06/13 14:12:13;;;;;;;12.30;11.70;;;26.60;50.90;;;;;;4974564;28;20463;-70
2022/06/13 14:15:08;;;;;;;13.50;12.77;;;27.90;49.00;;;;;;4974651;28;21096;-70
2022/06/13 14:17:44;;;;;;;13.93;12.93;;;29.00;46.30;;;;;;4968120;28;20559;-70
2022/06/13 14:20:23;;;;;;;13.23;12.43;;;28.90;46.20;;;;;;4974653;28;20451;-70
2022/06/13 14:22:52;;;;;;;13.00;12.40;;;28.80;45.70;;;;;;4974859;28;20457;-70
2022/06/13 14:25:23;;;;;;;13.47;12.77;;;28.10;45.70;;;;;;4972606;28;20447;-70
2022/06/13 14:27:54;;;;;;;13.53;12.83;;;28.40;47.40;;;;;;4974710;28;20488;-71
2022/06/13 14:33:10;;;;;;;11.93;11.53;;;28.00;47.40;;;;;;4974366;28;20482;-70
2022/06/13 14:35:52;;;;;;;12.03;11.53;;;27.60;46.90;;;;;;4974312;28;20821;-71
2022/06/13 14:38:42;;;;;;;13.33;12.33;;;27.30;47.30;;;;;;4974515;28;20447;-71
2022/06/13 14:41:16;;;;;;;12.20;11.70;;;27.40;48.60;;;;;;4974107;28;20494;-70
2022/06/13 14:43:54;;;;;;;11.70;11.20;;;27.30;48.70;;;;;;4974227;28;20934;-70
2022/06/13 14:46:37;;;;;;;12.50;12.00;;;27.20;47.90;;;;;;4973958;28;20463;-70
2022/06/13 14:49:12;;;;;;;13.40;12.70;;;26.70;48.40;;;;;;4978276;28;20490;-70
2022/06/13 14:52:10;;;;;;;12.50;11.87;;;26.00;49.30;;;;;;4993622;28;20462;-70
2022/06/13 14:54:49;;;;;;;11.87;11.07;;;25.30;50.60;;;;;;4993083;28;20490;-70
2022/06/13 14:57:50;;;;;;;13.30;12.63;;;25.10;51.30;;;;;;4993254;28;21009;-70
2022/06/13 15:00:29;;;;;;;12.93;12.43;;;25.60;50.00;;;;;;4933054;29;20452;-70
2022/06/13 15:03:06;;;;;;;12.53;11.83;;;26.00;50.70;;;;;;4933192;29;20453;-71
2022/06/13 15:06:04;;;;;;;11.93;11.43;;;26.20;50.00;;;;;;4969097;28;20820;-69
2022/06/13 15:09:12;;;;;;;12.47;11.77;;;26.10;49.70;;;;;;4992554;28;20565;-70
2022/06/13 15:11:42;;;;;;;12.90;12.03;;;26.00;51.30;;;;;;4984780;28;20462;-69
2022/06/13 15:14:13;;;;;;;12.53;11.90;;;25.80;50.00;;;;;;4977911;28;20840;-70
2022/06/13 15:16:41;;;;;;;12.37;11.77;;;25.50;49.10;;;;;;4981186;28;20962;-70
2022/06/13 15:19:10;;;;;;;12.20;11.60;;;25.30;50.40;;;;;;4982510;28;20801;-70
2022/06/13 15:21:43;;;;;;;11.53;11.13;;;25.10;50.60;;;;;;4982094;28;20456;-69
2022/06/13 15:24:15;;;;;;;11.90;11.00;;;25.00;51.20;;;;;;4982337;28;20439;-70
2022/06/13 15:26:43;;;;;;;12.60;11.97;;;24.90;51.10;;;;;;4992589;28;20461;-70
2022/06/13 15:29:15;;;;;;;12.57;11.97;;;24.80;51.10;;;;;;4992562;28;20451;-70
2022/06/13 15:31:46;;;;;;;12.50;11.90;;;25.00;51.90;;;;;;4992720;28;21309;-70
2022/06/13 15:34:16;;;;;;;12.93;12.30;;;25.30;51.40;;;;;;4992429;28;20493;-70
2022/06/13 15:36:45;;;;;;;12.83;12.07;;;25.30;51.20;;;;;;4992521;28;20943;-70
2022/06/13 15:39:14;;;;;;;12.90;12.23;;;25.20;52.10;;;;;;4992609;28;20455;-70
2022/06/13 15:41:43;;;;;;;14.27;13.37;;;25.30;52.50;;;;;;4992417;28;20454;-71
2022/06/13 15:44:15;;;;;;;11.13;10.63;;;25.20;51.90;;;;;;4992343;28;20992;-68
2022/06/13 15:46:50;;;;;;;12.70;12.00;;;25.20;51.50;;;;;;4992357;28;20450;-70
2022/06/13 15:49:20;;;;;;;13.10;12.40;;;25.30;52.00;;;;;;4992308;28;20999;-70
2022/06/13 15:52:02;;;;;;;12.57;11.87;;;25.30;51.60;;;;;;4992456;28;20681;-70
2022/06/13 15:54:30;;;;;;;12.30;11.70;;;25.30;50.90;;;;;;4992114;28;20553;-69
2022/06/13 15:57:10;;;;;;;12.50;11.90;;;25.30;51.50;;;;;;4992041;28;20692;-69
2022/06/13 15:59:53;;;;;;;11.90;11.40;;;25.20;50.60;;;;;;4992104;28;20486;-69
2022/06/13 16:02:25;;;;;;;13.30;12.40;;;25.10;49.90;;;;;;4992079;28;20936;-69
2022/06/13 16:04:52;;;;;;;13.20;12.50;;;25.10;50.00;;;;;;4992038;28;20485;-69
2022/06/13 16:07:29;;;;;;;11.70;11.10;;;25.00;51.00;;;;;;4992291;28;20873;-69
2022/06/13 16:09:57;;;;;;;11.63;11.10;;;24.90;52.30;;;;;;4991849;28;20458;-69
2022/06/13 16:12:30;;;;;;;12.10;11.60;;;24.90;52.00;;;;;;4991777;28;20459;-69
2022/06/13 16:14:59;;;;;;;12.73;11.97;;;24.70;52.20;;;;;;4991721;28;21003;-69
2022/06/13 16:17:31;;;;;;;12.27;11.77;;;24.80;52.70;;;;;;4991643;28;20901;-71
2022/06/13 16:20:14;;;;;;;11.83;11.23;;;24.70;51.90;;;;;;4991846;28;20474;-70
2022/06/13 16:22:43;;;;;;;12.43;11.73;;;24.80;52.10;;;;;;4991655;28;20465;-70
2022/06/13 16:25:11;;;;;;;12.80;12.20;;;24.60;52.40;;;;;;4991527;28;20530;-70
2022/06/13 16:27:39;;;;;;;12.77;12.07;;;24.60;52.70;;;;;;4991494;28;20462;-70
2022/06/13 16:30:07;;;;;;;13.63;12.93;;;24.70;53.00;;;;;;4991569;28;20454;-70
2022/06/13 16:32:44;;;;;;;11.10;10.60;;;24.50;52.00;;;;;;4990678;28;20446;-70
2022/06/13 16:35:11;;;;;;;12.20;11.70;;;24.50;52.50;;;;;;4991274;28;20486;-70
2022/06/13 16:37:52;;;;;;;12.13;11.63;;;24.40;52.60;;;;;;4991347;28;20463;-68
2022/06/13 16:40:34;;;;;;;12.50;11.80;;;24.30;53.00;;;;;;4991450;28;20465;-69
2022/06/13 16:43:01;;;;;;;12.87;12.10;;;24.30;52.90;;;;;;4991239;28;20451;-70
2022/06/13 16:45:27;;;;;;;12.43;11.80;;;24.30;52.10;;;;;;4991174;28;20873;-70
2022/06/13 16:47:55;;;;;;;12.77;12.00;;;24.10;52.70;;;;;;4990856;28;20842;-70
2022/06/13 16:50:24;;;;;;;12.40;11.73;;;24.00;53.20;;;;;;4991090;28;20513;-70
2022/06/13 16:52:56;;;;;;;11.97;11.33;;;23.90;52.30;;;;;;4991117;28;20463;-70
2022/06/13 16:55:28;;;;;;;12.47;11.77;;;23.90;52.70;;;;;;4991082;28;20517;-70
2022/06/13 16:57:56;;;;;;;12.17;11.57;;;23.90;52.50;;;;;;4991052;28;20450;-70
2022/06/13 17:00:29;;;;;;;12.43;11.83;;;23.90;53.00;;;;;;4990961;28;20450;-70
2022/06/13 17:03:02;;;;;;;12.13;11.50;;;23.80;52.50;;;;;;4990836;28;20451;-69